sensor_id;sensor_type;location;lat;lon;timestamp;pressure;altitude;pressure_sealevel;temperature;humidity
10135;BME280;5107;48.850;8.924;2023-03-17T00:01:06;96485.69;;;5.85;66.45
10135;BME280;5107;48.850;8.924;2023-03-17T00:03:39;96478.13;;;5.91;65.75
10135;BME280;5107;48.850;8.924;2023-03-17T00:08:41;96473.41;;;5.95;65.40
10135;BME280;5107;48.850;8.924;2023-03-17T00:11:12;96467.63;;;6.01;65.38
10135;BME280;5107;48.850;8.924;2023-03-17T00:13:40;96465.16;;;5.99;65.35
10135;BME280;5107;48.850;8.924;2023-03-17T00:16:15;96463.59;;;6.06;65.24
10135;BME280;5107;48.850;8.924;2023-03-17T00:18:43;96461.56;;;6.00;65.35
10135;BME280;5107;48.850;8.924;2023-03-17T00:21:12;96462.47;;;5.91;66.42
10135;BME280;5107;48.850;8.924;2023-03-17T00:23:41;96465.47;;;5.87;65.86
10135;BME280;5107;48.850;8.924;2023-03-17T00:26:11;96460.94;;;5.89;65.81
10135;BME280;5107;48.850;8.924;2023-03-17T00:28:39;96467.97;;;5.88;65.32
10135;BME280;5107;48.850;8.924;2023-03-17T00:31:12;96460.94;;;5.89;64.91
10135;BME280;5107;48.850;8.924;2023-03-17T00:33:41;96460.94;;;5.89;64.13
10135;BME280;5107;48.850;8.924;2023-03-17T00:36:12;96461.06;;;5.87;64.21
10135;BME280;5107;48.850;8.924;2023-03-17T00:38:41;96466.28;;;5.87;64.52
10135;BME280;5107;48.850;8.924;2023-03-17T00:41:11;96467.13;;;5.88;64.42
10135;BME280;5107;48.850;8.924;2023-03-17T00:43:38;96463.66;;;5.87;63.31
10135;BME280;5107;48.850;8.924;2023-03-17T00:46:11;96460.25;;;5.87;62.74
10135;BME280;5107;48.850;8.924;2023-03-17T00:48:39;96453.13;;;5.89;63.48
10135;BME280;5107;48.850;8.924;2023-03-17T00:51:10;96448.19;;;5.86;63.24
10135;BME280;5107;48.850;8.924;2023-03-17T00:53:38;96443.66;;;5.78;62.88
10135;BME280;5107;48.850;8.924;2023-03-17T00:56:14;96438.91;;;5.73;63.98
10135;BME280;5107;48.850;8.924;2023-03-17T00:58:42;96438.22;;;5.71;63.27
10135;BME280;5107;48.850;8.924;2023-03-17T01:01:10;96431.34;;;5.70;63.26
10135;BME280;5107;48.850;8.924;2023-03-17T01:03:39;96433.97;;;5.70;62.49
10135;BME280;5107;48.850;8.924;2023-03-17T01:06:09;96432.03;;;5.72;61.73
10135;BME280;5107;48.850;8.924;2023-03-17T01:08:38;96428.19;;;5.77;61.59
10135;BME280;5107;48.850;8.924;2023-03-17T01:11:16;96425.78;;;5.83;60.63
10135;BME280;5107;48.850;8.924;2023-03-17T01:13:46;96420.44;;;5.85;61.23
10135;BME280;5107;48.850;8.924;2023-03-17T01:16:13;96422.06;;;5.86;60.75
10135;BME280;5107;48.850;8.924;2023-03-17T01:18:41;96410.81;;;5.85;60.65
10135;BME280;5107;48.850;8.924;2023-03-17T01:21:09;96404.75;;;5.85;60.90
10135;BME280;5107;48.850;8.924;2023-03-17T01:23:36;96404.75;;;5.85;60.62
10135;BME280;5107;48.850;8.924;2023-03-17T01:26:04;96402.97;;;5.85;60.80
10135;BME280;5107;48.850;8.924;2023-03-17T01:28:33;96405.16;;;5.90;59.57
10135;BME280;5107;48.850;8.924;2023-03-17T01:31:00;96394.84;;;5.88;60.38
10135;BME280;5107;48.850;8.924;2023-03-17T01:33:28;96396.94;;;5.85;60.88
10135;BME280;5107;48.850;8.924;2023-03-17T01:35:55;96389.63;;;5.88;59.24
10135;BME280;5107;48.850;8.924;2023-03-17T01:38:23;96389.22;;;5.93;59.19
10135;BME280;5107;48.850;8.924;2023-03-17T01:40:51;96385.16;;;5.98;58.21
10135;BME280;5107;48.850;8.924;2023-03-17T01:43:22;96386.34;;;6.04;58.63
10135;BME280;5107;48.850;8.924;2023-03-17T01:46:26;96378.22;;;6.07;58.00
10135;BME280;5107;48.850;8.924;2023-03-17T01:49:07;96378.44;;;6.14;58.44
10135;BME280;5107;48.850;8.924;2023-03-17T01:51:42;96383.16;;;6.10;57.76
10135;BME280;5107;48.850;8.924;2023-03-17T01:54:17;96386.28;;;6.14;58.07
10135;BME280;5107;48.850;8.924;2023-03-17T01:56:49;96384.78;;;6.11;57.94
10135;BME280;5107;48.850;8.924;2023-03-17T01:59:23;96377.94;;;6.10;57.78
10135;BME280;5107;48.850;8.924;2023-03-17T02:02:00;96382.84;;;6.13;58.08
10135;BME280;5107;48.850;8.924;2023-03-17T02:04:29;96379.56;;;6.11;58.32
10135;BME280;5107;48.850;8.924;2023-03-17T02:06:56;96387.78;;;6.16;56.92
10135;BME280;5107;48.850;8.924;2023-03-17T02:09:25;96381.59;;;6.17;57.22
10135;BME280;5107;48.850;8.924;2023-03-17T02:11:53;96378.84;;;6.19;57.29
10135;BME280;5107;48.850;8.924;2023-03-17T02:14:21;96381.66;;;6.25;57.04
10135;BME280;5107;48.850;8.924;2023-03-17T02:16:49;96378.91;;;6.27;56.47
10135;BME280;5107;48.850;8.924;2023-03-17T02:19:18;96390.31;;;6.26;56.12
10135;BME280;5107;48.850;8.924;2023-03-17T02:21:49;96388.53;;;6.26;56.10
10135;BME280;5107;48.850;8.924;2023-03-17T02:24:27;96384.25;;;6.25;56.14
10135;BME280;5107;48.850;8.924;2023-03-17T02:27:02;96387.22;;;6.30;55.77
10135;BME280;5107;48.850;8.924;2023-03-17T02:29:33;96374.50;;;6.27;55.84
10135;BME280;5107;48.850;8.924;2023-03-17T02:32:01;96380.22;;;6.31;55.88
10135;BME280;5107;48.850;8.924;2023-03-17T02:34:29;96375.06;;;6.21;57.48
10135;BME280;5107;48.850;8.924;2023-03-17T02:36:57;96377.03;;;6.19;58.86
10135;BME280;5107;48.850;8.924;2023-03-17T02:39:25;96372.25;;;6.15;58.66
10135;BME280;5107;48.850;8.924;2023-03-17T02:41:53;96379.56;;;6.11;56.64
10135;BME280;5107;48.850;8.924;2023-03-17T02:44:20;96376.94;;;6.11;57.48
10135;BME280;5107;48.850;8.924;2023-03-17T02:46:48;96382.03;;;6.13;56.85
10135;BME280;5107;48.850;8.924;2023-03-17T02:49:15;96376.38;;;6.17;56.95
10135;BME280;5107;48.850;8.924;2023-03-17T02:51:44;96375.97;;;6.12;57.02
10135;BME280;5107;48.850;8.924;2023-03-17T02:54:13;96361.06;;;6.04;57.21
10135;BME280;5107;48.850;8.924;2023-03-17T02:56:40;96365.94;;;5.99;57.38
10135;BME280;5107;48.850;8.924;2023-03-17T02:59:08;96363.59;;;5.96;56.69
10135;BME280;5107;48.850;8.924;2023-03-17T03:01:35;96360.16;;;5.96;58.08
10135;BME280;5107;48.850;8.924;2023-03-17T03:04:03;96363.09;;;5.93;57.81
10135;BME280;5107;48.850;8.924;2023-03-17T03:06:31;96350.03;;;5.93;57.07
10135;BME280;5107;48.850;8.924;2023-03-17T03:08:59;96356.22;;;5.92;56.82
10135;BME280;5107;48.850;8.924;2023-03-17T03:11:27;96352.47;;;5.94;56.57
10135;BME280;5107;48.850;8.924;2023-03-17T03:13:55;96348.91;;;5.95;55.86
10135;BME280;5107;48.850;8.924;2023-03-17T03:16:22;96350.53;;;5.96;56.35
10135;BME280;5107;48.850;8.924;2023-03-17T03:18:49;96357.28;;;5.99;56.32
10135;BME280;5107;48.850;8.924;2023-03-17T03:21:16;96363.59;;;5.96;56.31
10135;BME280;5107;48.850;8.924;2023-03-17T03:23:43;96351.69;;;5.94;56.00
10135;BME280;5107;48.850;8.924;2023-03-17T03:26:10;96352.34;;;5.96;56.50
10135;BME280;5107;48.850;8.924;2023-03-17T03:28:39;96346.28;;;5.95;56.15
10135;BME280;5107;48.850;8.924;2023-03-17T03:31:07;96344.00;;;5.92;56.06
10135;BME280;5107;48.850;8.924;2023-03-17T03:33:34;96341.53;;;5.91;56.34
10135;BME280;5107;48.850;8.924;2023-03-17T03:36:02;96344.81;;;5.93;55.87
10135;BME280;5107;48.850;8.924;2023-03-17T03:38:30;96346.06;;;5.89;56.54
10135;BME280;5107;48.850;8.924;2023-03-17T03:40:57;96349.66;;;5.88;55.97
10135;BME280;5107;48.850;8.924;2023-03-17T03:43:24;96354.59;;;5.91;55.53
10135;BME280;5107;48.850;8.924;2023-03-17T03:45:53;96343.47;;;5.89;56.19
10135;BME280;5107;48.850;8.924;2023-03-17T03:48:20;96344.44;;;5.88;56.21
10135;BME280;5107;48.850;8.924;2023-03-17T03:50:48;96347.47;;;5.83;56.21
10135;BME280;5107;48.850;8.924;2023-03-17T03:53:15;96343.38;;;5.81;55.99
10135;BME280;5107;48.850;8.924;2023-03-17T03:55:42;96342.53;;;5.80;56.27
10135;BME280;5107;48.850;8.924;2023-03-17T03:58:09;96341.03;;;5.78;56.46
10135;BME280;5107;48.850;8.924;2023-03-17T04:00:36;96346.13;;;5.79;55.89
10135;BME280;5107;48.850;8.924;2023-03-17T04:03:05;96343.38;;;5.81;56.11
10135;BME280;5107;48.850;8.924;2023-03-17T04:05:32;96342.41;;;5.82;56.14
10135;BME280;5107;48.850;8.924;2023-03-17T04:08:00;96345.84;;;5.82;56.22
10135;BME280;5107;48.850;8.924;2023-03-17T04:10:27;96344.34;;;5.80;56.29
10135;BME280;5107;48.850;8.924;2023-03-17T04:12:54;96338.00;;;5.82;56.15
10135;BME280;5107;48.850;8.924;2023-03-17T04:15:22;96332.50;;;5.85;55.55
10135;BME280;5107;48.850;8.924;2023-03-17T04:17:49;96332.09;;;5.80;55.95
10135;BME280;5107;48.850;8.924;2023-03-17T04:20:21;96321.81;;;5.79;56.40
10135;BME280;5107;48.850;8.924;2023-03-17T04:22:48;96324.81;;;5.84;55.91
10135;BME280;5107;48.850;8.924;2023-03-17T04:25:16;96325.47;;;5.86;55.59
10135;BME280;5107;48.850;8.924;2023-03-17T04:27:43;96333.69;;;5.91;55.54
10135;BME280;5107;48.850;8.924;2023-03-17T04:30:12;96326.53;;;5.93;55.02
10135;BME280;5107;48.850;8.924;2023-03-17T04:32:42;96331.00;;;6.00;55.22
10135;BME280;5107;48.850;8.924;2023-03-17T04:35:13;96324.00;;;6.01;54.52
10135;BME280;5107;48.850;8.924;2023-03-17T04:37:42;96319.75;;;6.00;54.82
10135;BME280;5107;48.850;8.924;2023-03-17T04:40:11;96318.19;;;5.89;55.36
10135;BME280;5107;48.850;8.924;2023-03-17T04:42:39;96323.31;;;5.81;55.59
10135;BME280;5107;48.850;8.924;2023-03-17T04:45:09;96323.44;;;5.80;56.06
10135;BME280;5107;48.850;8.924;2023-03-17T04:47:37;96328.31;;;5.75;55.61
10135;BME280;5107;48.850;8.924;2023-03-17T04:50:06;96319.94;;;5.71;56.01
10135;BME280;5107;48.850;8.924;2023-03-17T04:52:34;96322.41;;;5.72;55.96
10135;BME280;5107;48.850;8.924;2023-03-17T04:55:04;96324.88;;;5.74;56.10
10135;BME280;5107;48.850;8.924;2023-03-17T04:57:33;96321.16;;;5.77;55.34
10135;BME280;5107;48.850;8.924;2023-03-17T05:00:00;96313.31;;;5.77;55.84
10135;BME280;5107;48.850;8.924;2023-03-17T05:02:27;96313.75;;;5.72;56.12
10135;BME280;5107;48.850;8.924;2023-03-17T05:04:55;96316.16;;;5.65;56.24
10135;BME280;5107;48.850;8.924;2023-03-17T05:07:22;96307.97;;;5.60;56.60
10135;BME280;5107;48.850;8.924;2023-03-17T05:09:49;96311.22;;;5.62;56.01
10135;BME280;5107;48.850;8.924;2023-03-17T05:12:18;96305.72;;;5.65;56.12
10135;BME280;5107;48.850;8.924;2023-03-17T05:14:45;96297.88;;;5.65;56.25
10135;BME280;5107;48.850;8.924;2023-03-17T05:17:13;96306.75;;;5.72;56.10
10135;BME280;5107;48.850;8.924;2023-03-17T05:19:41;96310.41;;;5.80;55.40
10135;BME280;5107;48.850;8.924;2023-03-17T05:22:08;96311.91;;;5.82;56.04
10135;BME280;5107;48.850;8.924;2023-03-17T05:24:35;96315.13;;;5.76;56.02
10135;BME280;5107;48.850;8.924;2023-03-17T05:27:03;96318.00;;;5.73;56.03
10135;BME280;5107;48.850;8.924;2023-03-17T05:29:31;96324.06;;;5.73;56.03
10135;BME280;5107;48.850;8.924;2023-03-17T05:31:59;96323.09;;;5.75;56.20
10135;BME280;5107;48.850;8.924;2023-03-17T05:34:26;96320.16;;;5.78;55.94
10135;BME280;5107;48.850;8.924;2023-03-17T05:36:53;96313.47;;;5.75;56.14
10135;BME280;5107;48.850;8.924;2023-03-17T05:39:20;96319.50;;;5.76;55.87
10135;BME280;5107;48.850;8.924;2023-03-17T05:41:48;96315.41;;;5.73;55.93
10135;BME280;5107;48.850;8.924;2023-03-17T05:44:15;96310.53;;;5.78;56.00
10135;BME280;5107;48.850;8.924;2023-03-17T05:46:44;96309.97;;;5.84;55.77
10135;BME280;5107;48.850;8.924;2023-03-17T05:49:11;96302.00;;;5.86;55.90
10135;BME280;5107;48.850;8.924;2023-03-17T05:51:38;96301.00;;;5.87;55.66
10135;BME280;5107;48.850;8.924;2023-03-17T05:54:06;96309.09;;;5.93;55.40
10135;BME280;5107;48.850;8.924;2023-03-17T05:56:33;96302.44;;;5.99;55.41
10135;BME280;5107;48.850;8.924;2023-03-17T05:59:01;96304.44;;;6.05;55.04
10135;BME280;5107;48.850;8.924;2023-03-17T06:01:29;96317.19;;;6.08;55.45
10135;BME280;5107;48.850;8.924;2023-03-17T06:03:58;96314.78;;;6.15;55.01
10135;BME280;5107;48.850;8.924;2023-03-17T06:06:26;96315.38;;;6.26;54.69
10135;BME280;5107;48.850;8.924;2023-03-17T06:08:55;96320.84;;;6.41;54.42
10135;BME280;5107;48.850;8.924;2023-03-17T06:11:22;96318.00;;;6.52;54.42
10135;BME280;5107;48.850;8.924;2023-03-17T06:13:49;96316.44;;;6.67;54.19
10135;BME280;5107;48.850;8.924;2023-03-17T06:16:16;96314.22;;;6.80;53.83
10135;BME280;5107;48.850;8.924;2023-03-17T06:18:44;96315.19;;;6.79;54.04
10135;BME280;5107;48.850;8.924;2023-03-17T06:21:13;96324.50;;;6.82;54.01
10135;BME280;5107;48.850;8.924;2023-03-17T06:23:40;96325.19;;;6.84;53.93
10135;BME280;5107;48.850;8.924;2023-03-17T06:26:08;96314.75;;;6.92;53.14
10135;BME280;5107;48.850;8.924;2023-03-17T06:28:35;96319.34;;;6.98;53.03
10135;BME280;5107;48.850;8.924;2023-03-17T06:31:03;96313.50;;;7.04;53.19
10135;BME280;5107;48.850;8.924;2023-03-17T06:33:30;96308.47;;;7.11;52.69
10135;BME280;5107;48.850;8.924;2023-03-17T06:35:57;96298.22;;;7.26;52.48
10135;BME280;5107;48.850;8.924;2023-03-17T06:38:29;96304.97;;;7.44;51.73
10135;BME280;5107;48.850;8.924;2023-03-17T06:40:56;96301.88;;;7.57;51.60
10135;BME280;5107;48.850;8.924;2023-03-17T06:43:23;96299.94;;;7.91;50.58
10135;BME280;5107;48.850;8.924;2023-03-17T06:45:51;96302.84;;;8.29;50.21
10135;BME280;5107;48.850;8.924;2023-03-17T06:48:18;96304.97;;;8.66;49.37
10135;BME280;5107;48.850;8.924;2023-03-17T06:50:45;96296.53;;;8.95;48.72
10135;BME280;5107;48.850;8.924;2023-03-17T06:53:13;96309.72;;;9.18;48.15
10135;BME280;5107;48.850;8.924;2023-03-17T06:55:42;96304.38;;;9.34;47.59
10135;BME280;5107;48.850;8.924;2023-03-17T06:58:09;96311.91;;;9.37;47.15
10135;BME280;5107;48.850;8.924;2023-03-17T07:00:38;96325.50;;;9.40;47.32
10135;BME280;5107;48.850;8.924;2023-03-17T07:03:06;96328.34;;;9.62;47.05
10135;BME280;5107;48.850;8.924;2023-03-17T07:05:34;96341.63;;;9.91;46.24
10135;BME280;5107;48.850;8.924;2023-03-17T07:08:04;96341.56;;;9.99;46.41
10135;BME280;5107;48.850;8.924;2023-03-17T07:10:32;96346.16;;;10.28;46.36
10135;BME280;5107;48.850;8.924;2023-03-17T07:13:00;96352.91;;;10.45;45.73
10135;BME280;5107;48.850;8.924;2023-03-17T07:15:28;96344.88;;;10.76;46.02
10135;BME280;5107;48.850;8.924;2023-03-17T07:17:59;96355.97;;;11.16;44.76
10135;BME280;5107;48.850;8.924;2023-03-17T07:20:27;96357.59;;;11.17;44.36
10135;BME280;5107;48.850;8.924;2023-03-17T07:22:54;96357.78;;;11.30;44.52
10135;BME280;5107;48.850;8.924;2023-03-17T07:25:21;96357.25;;;11.20;44.17
10135;BME280;5107;48.850;8.924;2023-03-17T07:27:52;96348.34;;;11.21;44.58
10135;BME280;5107;48.850;8.924;2023-03-17T07:30:20;96348.63;;;11.26;44.74
10135;BME280;5107;48.850;8.924;2023-03-17T07:32:48;96356.16;;;11.14;45.38
10135;BME280;5107;48.850;8.924;2023-03-17T07:35:16;96356.72;;;11.10;46.07
10135;BME280;5107;48.850;8.924;2023-03-17T07:37:43;96348.16;;;11.08;45.78
10135;BME280;5107;48.850;8.924;2023-03-17T07:40:12;96356.06;;;11.08;44.94
10135;BME280;5107;48.850;8.924;2023-03-17T07:42:39;96355.06;;;11.09;44.89
10135;BME280;5107;48.850;8.924;2023-03-17T07:45:07;96338.53;;;11.15;45.35
10135;BME280;5107;48.850;8.924;2023-03-17T07:47:36;96343.09;;;11.21;44.78
10135;BME280;5107;48.850;8.924;2023-03-17T07:50:05;96343.38;;;11.11;44.24
10135;BME280;5107;48.850;8.924;2023-03-17T07:52:32;96342.63;;;11.02;44.65
10135;BME280;5107;48.850;8.924;2023-03-17T07:55:00;96339.34;;;11.30;44.49
10135;BME280;5107;48.850;8.924;2023-03-17T07:57:27;96347.34;;;11.72;43.96
10135;BME280;5107;48.850;8.924;2023-03-17T07:59:54;96343.38;;;11.98;42.92
10135;BME280;5107;48.850;8.924;2023-03-17T08:02:21;96349.81;;;12.10;42.90
10135;BME280;5107;48.850;8.924;2023-03-17T08:04:50;96346.44;;;12.37;43.09
10135;BME280;5107;48.850;8.924;2023-03-17T08:07:18;96354.00;;;12.47;41.83
10135;BME280;5107;48.850;8.924;2023-03-17T08:09:45;96345.09;;;12.27;42.61
10135;BME280;5107;48.850;8.924;2023-03-17T08:12:13;96337.81;;;12.07;42.99
10135;BME280;5107;48.850;8.924;2023-03-17T08:14:40;96338.69;;;12.14;42.94
10135;BME280;5107;48.850;8.924;2023-03-17T08:17:08;96339.25;;;12.10;42.51
10135;BME280;5107;48.850;8.924;2023-03-17T08:19:36;96333.00;;;12.11;42.49
10135;BME280;5107;48.850;8.924;2023-03-17T08:22:05;96339.91;;;12.12;43.11
10135;BME280;5107;48.850;8.924;2023-03-17T08:24:33;96334.03;;;12.16;43.06
10135;BME280;5107;48.850;8.924;2023-03-17T08:27:00;96329.50;;;12.32;42.70
10135;BME280;5107;48.850;8.924;2023-03-17T08:29:27;96321.41;;;12.54;42.67
10135;BME280;5107;48.850;8.924;2023-03-17T08:31:55;96327.59;;;13.03;42.65
10135;BME280;5107;48.850;8.924;2023-03-17T08:34:22;96329.47;;;13.50;41.48
10135;BME280;5107;48.850;8.924;2023-03-17T08:36:50;96325.47;;;13.60;41.23
10135;BME280;5107;48.850;8.924;2023-03-17T08:39:19;96325.75;;;13.85;40.95
10135;BME280;5107;48.850;8.924;2023-03-17T08:41:46;96332.72;;;14.26;39.91
10135;BME280;5107;48.850;8.924;2023-03-17T08:44:14;96327.66;;;14.31;39.46
10135;BME280;5107;48.850;8.924;2023-03-17T08:46:41;96326.22;;;14.35;39.45
10135;BME280;5107;48.850;8.924;2023-03-17T08:49:09;96331.72;;;14.27;40.37
10135;BME280;5107;48.850;8.924;2023-03-17T08:51:38;96330.34;;;14.64;38.48
10135;BME280;5107;48.850;8.924;2023-03-17T08:54:05;96329.72;;;14.49;38.43
10135;BME280;5107;48.850;8.924;2023-03-17T08:56:35;96334.22;;;14.68;39.22
10135;BME280;5107;48.850;8.924;2023-03-17T08:59:03;96341.94;;;14.82;39.04
10135;BME280;5107;48.850;8.924;2023-03-17T09:01:31;96326.22;;;15.01;38.54
10135;BME280;5107;48.850;8.924;2023-03-17T09:03:59;96323.28;;;15.35;39.13
10135;BME280;5107;48.850;8.924;2023-03-17T09:06:26;96324.34;;;15.21;37.59
10135;BME280;5107;48.850;8.924;2023-03-17T09:08:54;96335.75;;;15.28;38.59
10135;BME280;5107;48.850;8.924;2023-03-17T09:11:23;96335.16;;;15.19;37.87
10135;BME280;5107;48.850;8.924;2023-03-17T09:13:52;96326.34;;;15.32;38.28
10135;BME280;5107;48.850;8.924;2023-03-17T09:16:23;96321.19;;;15.50;38.51
10135;BME280;5107;48.850;8.924;2023-03-17T09:18:52;96325.44;;;16.03;38.86
10135;BME280;5107;48.850;8.924;2023-03-17T09:21:19;96333.97;;;16.11;37.02
10135;BME280;5107;48.850;8.924;2023-03-17T09:23:47;96328.72;;;16.05;36.96
10135;BME280;5107;48.850;8.924;2023-03-17T09:26:16;96325.84;;;16.06;36.61
10135;BME280;5107;48.850;8.924;2023-03-17T09:28:44;96331.28;;;16.18;36.97
10135;BME280;5107;48.850;8.924;2023-03-17T09:31:13;96319.78;;;16.55;35.62
10135;BME280;5107;48.850;8.924;2023-03-17T09:33:41;96322.59;;;16.60;35.12
10135;BME280;5107;48.850;8.924;2023-03-17T09:36:11;96318.22;;;16.41;35.71
10135;BME280;5107;48.850;8.924;2023-03-17T09:38:38;96323.44;;;16.61;35.70
10135;BME280;5107;48.850;8.924;2023-03-17T09:41:42;96326.19;;;16.97;36.53
10135;BME280;5107;48.850;8.924;2023-03-17T09:44:22;96320.94;;;17.09;35.50
10135;BME280;5107;48.850;8.924;2023-03-17T09:47:05;96320.56;;;16.87;35.78
10135;BME280;5107;48.850;8.924;2023-03-17T09:49:39;96314.88;;;17.02;35.53
10135;BME280;5107;48.850;8.924;2023-03-17T09:52:11;96322.28;;;17.18;36.00
10135;BME280;5107;48.850;8.924;2023-03-17T09:54:41;96317.56;;;17.57;34.62
10135;BME280;5107;48.850;8.924;2023-03-17T09:57:15;96316.59;;;18.29;34.98
10135;BME280;5107;48.850;8.924;2023-03-17T09:59:44;96312.53;;;18.56;34.66
10135;BME280;5107;48.850;8.924;2023-03-17T10:02:21;96314.50;;;19.19;35.64
10135;BME280;5107;48.850;8.924;2023-03-17T10:04:50;96309.16;;;19.31;35.02
10135;BME280;5107;48.850;8.924;2023-03-17T10:07:24;96310.28;;;19.47;33.66
10135;BME280;5107;48.850;8.924;2023-03-17T10:10:00;96302.75;;;19.55;33.60
10135;BME280;5107;48.850;8.924;2023-03-17T10:12:41;96306.94;;;19.40;33.99
10135;BME280;5107;48.850;8.924;2023-03-17T10:15:19;96303.56;;;19.56;34.20
10135;BME280;5107;48.850;8.924;2023-03-17T10:17:49;96302.09;;;19.13;33.24
10135;BME280;5107;48.850;8.924;2023-03-17T10:20:23;96297.00;;;18.77;34.21
10135;BME280;5107;48.850;8.924;2023-03-17T10:22:54;96294.69;;;18.57;35.86
10135;BME280;5107;48.850;8.924;2023-03-17T10:25:26;96295.50;;;18.16;35.92
10135;BME280;5107;48.850;8.924;2023-03-17T10:27:57;96298.34;;;18.03;35.63
10135;BME280;5107;48.850;8.924;2023-03-17T10:30:31;96291.19;;;17.73;36.59
10135;BME280;5107;48.850;8.924;2023-03-17T10:33:02;96293.09;;;17.48;38.02
10135;BME280;5107;48.850;8.924;2023-03-17T10:35:32;96295.91;;;17.35;39.19
10135;BME280;5107;48.850;8.924;2023-03-17T10:38:01;96292.09;;;17.31;39.68
10135;BME280;5107;48.850;8.924;2023-03-17T10:40:39;96296.13;;;17.33;39.88
10135;BME280;5107;48.850;8.924;2023-03-17T10:43:12;96299.16;;;17.37;39.03
10135;BME280;5107;48.850;8.924;2023-03-17T10:45:54;96301.44;;;17.52;39.58
10135;BME280;5107;48.850;8.924;2023-03-17T10:48:26;96293.84;;;17.55;39.82
10135;BME280;5107;48.850;8.924;2023-03-17T10:50:57;96290.44;;;17.66;38.02
10135;BME280;5107;48.850;8.924;2023-03-17T10:53:26;96293.38;;;17.76;37.52
10135;BME280;5107;48.850;8.924;2023-03-17T10:55:59;96291.81;;;17.87;37.67
10135;BME280;5107;48.850;8.924;2023-03-17T10:58:36;96289.91;;;18.06;37.52
10135;BME280;5107;48.850;8.924;2023-03-17T11:01:07;96280.97;;;18.00;37.33
10135;BME280;5107;48.850;8.924;2023-03-17T11:03:42;96278.72;;;17.86;37.76
10135;BME280;5107;48.850;8.924;2023-03-17T11:06:12;96280.88;;;17.77;38.01
10135;BME280;5107;48.850;8.924;2023-03-17T11:08:45;96271.31;;;17.88;38.56
10135;BME280;5107;48.850;8.924;2023-03-17T11:11:24;96272.97;;;18.00;38.93
10135;BME280;5107;48.850;8.924;2023-03-17T11:14:01;96268.50;;;17.82;39.11
10135;BME280;5107;48.850;8.924;2023-03-17T11:16:31;96270.22;;;17.77;39.37
10135;BME280;5107;48.850;8.924;2023-03-17T11:19:06;96267.78;;;17.75;40.29
10135;BME280;5107;48.850;8.924;2023-03-17T11:21:45;96263.16;;;17.71;40.40
10135;BME280;5107;48.850;8.924;2023-03-17T11:24:20;96256.22;;;17.70;40.29
10135;BME280;5107;48.850;8.924;2023-03-17T11:26:57;96255.88;;;17.78;40.75
10135;BME280;5107;48.850;8.924;2023-03-17T11:29:42;96258.94;;;17.81;40.04
10135;BME280;5107;48.850;8.924;2023-03-17T11:32:25;96250.78;;;17.76;39.94
10135;BME280;5107;48.850;8.924;2023-03-17T11:35:28;96251.28;;;17.85;39.50
10135;BME280;5107;48.850;8.924;2023-03-17T11:38:16;96252.69;;;17.99;40.33
10135;BME280;5107;48.850;8.924;2023-03-17T11:41:10;96247.75;;;18.03;40.08
10135;BME280;5107;48.850;8.924;2023-03-17T11:43:57;96238.97;;;18.14;39.59
10135;BME280;5107;48.850;8.924;2023-03-17T11:46:30;96254.59;;;18.10;39.15
10135;BME280;5107;48.850;8.924;2023-03-17T11:49:09;96249.78;;;18.31;39.86
10135;BME280;5107;48.850;8.924;2023-03-17T11:51:54;96240.75;;;18.55;39.26
10135;BME280;5107;48.850;8.924;2023-03-17T11:54:34;96240.22;;;18.65;39.58
10135;BME280;5107;48.850;8.924;2023-03-17T11:57:11;96232.88;;;18.48;39.63
10135;BME280;5107;48.850;8.924;2023-03-17T11:59:46;96234.75;;;18.48;39.22
10135;BME280;5107;48.850;8.924;2023-03-17T12:02:23;96234.25;;;18.51;39.24
10135;BME280;5107;48.850;8.924;2023-03-17T12:04:57;96242.25;;;18.39;39.24
10135;BME280;5107;48.850;8.924;2023-03-17T12:07:31;96238.09;;;18.32;40.27
10135;BME280;5107;48.850;8.924;2023-03-17T12:10:09;96239.25;;;18.24;39.67
10135;BME280;5107;48.850;8.924;2023-03-17T12:12:46;96239.44;;;18.11;40.36
10135;BME280;5107;48.850;8.924;2023-03-17T12:15:24;96232.13;;;18.06;40.27
10135;BME280;5107;48.850;8.924;2023-03-17T12:17:58;96222.47;;;17.94;40.96
10135;BME280;5107;48.850;8.924;2023-03-17T12:20:32;96223.66;;;17.98;41.31
10135;BME280;5107;48.850;8.924;2023-03-17T12:23:10;96216.97;;;18.07;41.19
10135;BME280;5107;48.850;8.924;2023-03-17T12:25:48;96222.75;;;18.04;40.64
10135;BME280;5107;48.850;8.924;2023-03-17T12:28:23;96221.72;;;18.05;40.76
10135;BME280;5107;48.850;8.924;2023-03-17T12:30:54;96220.63;;;17.94;39.92
10135;BME280;5107;48.850;8.924;2023-03-17T12:33:29;96206.88;;;18.09;40.67
10135;BME280;5107;48.850;8.924;2023-03-17T12:36:01;96211.66;;;18.07;39.63
10135;BME280;5107;48.850;8.924;2023-03-17T12:38:37;96209.88;;;18.01;39.93
10135;BME280;5107;48.850;8.924;2023-03-17T12:41:38;96207.75;;;17.91;39.69
10135;BME280;5107;48.850;8.924;2023-03-17T12:44:23;96216.44;;;17.87;40.67
10135;BME280;5107;48.850;8.924;2023-03-17T12:47:08;96205.44;;;17.83;40.75
10135;BME280;5107;48.850;8.924;2023-03-17T12:50:00;96210.84;;;17.76;40.62
10135;BME280;5107;48.850;8.924;2023-03-17T12:52:43;96206.78;;;17.62;40.09
10135;BME280;5107;48.850;8.924;2023-03-17T12:55:16;96201.00;;;17.65;40.88
10135;BME280;5107;48.850;8.924;2023-03-17T12:57:46;96197.22;;;17.55;40.62
10135;BME280;5107;48.850;8.924;2023-03-17T13:00:26;96201.03;;;17.59;41.04
10135;BME280;5107;48.850;8.924;2023-03-17T13:03:16;96194.06;;;17.64;40.63
10135;BME280;5107;48.850;8.924;2023-03-17T13:05:50;96183.63;;;17.63;40.18
10135;BME280;5107;48.850;8.924;2023-03-17T13:08:24;96188.25;;;17.67;40.29
10135;BME280;5107;48.850;8.924;2023-03-17T13:11:18;96184.13;;;17.83;40.39
10135;BME280;5107;48.850;8.924;2023-03-17T13:14:13;96176.63;;;17.92;39.87
10135;BME280;5107;48.850;8.924;2023-03-17T13:16:44;96178.03;;;17.94;39.49
10135;BME280;5107;48.850;8.924;2023-03-17T13:19:19;96174.69;;;18.10;39.36
10135;BME280;5107;48.850;8.924;2023-03-17T13:24:44;96168.34;;;18.35;38.65
10135;BME280;5107;48.850;8.924;2023-03-17T13:27:43;96165.53;;;18.41;38.63
10135;BME280;5107;48.850;8.924;2023-03-17T13:30:54;96158.16;;;18.55;37.88
10135;BME280;5107;48.850;8.924;2023-03-17T13:33:28;96153.84;;;18.54;38.24
10135;BME280;5107;48.850;8.924;2023-03-17T13:36:24;96154.09;;;18.52;38.58
10135;BME280;5107;48.850;8.924;2023-03-17T13:39:23;96157.69;;;18.46;37.74
10135;BME280;5107;48.850;8.924;2023-03-17T13:42:22;96148.53;;;18.54;38.39
10135;BME280;5107;48.850;8.924;2023-03-17T13:45:15;96141.69;;;18.46;38.14